Denison, IA

5:56 PM CDT on July 20, 2019 (GMT -0500)
Denison Municipal

Weather History for KDNS - May, 2019

Change the Weather History Date:

Friday, May 17, 2019

  Actual Average Record
Temperature  
Mean Temperature 74 °F -  
Max Temperature 84 °F 69 °F 86 °F (1997)
Min Temperature 64 °F 49 °F 30 °F (2014)
Cooling Degree Days 9    
Growing Degree Days 24 (Base 50)    
Moisture  
Dew Point 63 °F    
Average Humidity 76    
Maximum Humidity 94    
Minimum Humidity 48    
Precipitation  
Precipitation 0.01 in - - ()
Sea Level Pressure  
Sea Level Pressure 29.69 in    
Wind  
Wind Speed 14 mph (ESE)    
Max Wind Speed 25 mph    
Max Gust Speed 38 mph    
Visibility 10 miles    
Events      
Averages and records for this station are not official NWS values.
T = Trace of Precipitation, MM = Missing Value Source: NWS Daily Summary

Daily Weather History Graph

Daily Weather History Graph

Search for Another Location

Airport or City:

Astronomy

May. 17, 2019 Rise Set
Actual Time 5:59 AM CDT 8:37 PM CDT
Civil Twilight 5:27 AM CDT 9:09 PM CDT
Nautical Twilight 4:47 AM CDT 9:49 PM CDT
Astronomical Twilight 4:01 AM CDT 10:35 PM CDT
Moon 7:24 PM CDT (5/17) 5:34 AM CDT (5/17)
Length of Visible Light 15h 42m
Length of Day
14h 37m
Waxing Gibbous, 98% of the Moon is Illuminated
May 17
Waxing Gibbous
May 18
Full
May 26
Last Quarter
Jun 3
New
Jun 10
First Quarter

Hourly Weather History & Observations

Time (CDT) Temp. Heat Index Dew Point Humidity Pressure Visibility Wind Dir Wind Speed Gust Speed Precip Events Conditions
12:15 AM 71.6 °F - 57.2 °F 60% 29.75 in 9.0 mi NE 8.1 mph - N/A   Light Drizzle
12:35 AM 68.0 °F - 57.2 °F 68% 29.73 in 10.0 mi ENE 15.0 mph 24.2 mph N/A   Overcast
12:55 AM 68.0 °F - 57.2 °F 68% 29.73 in 10.0 mi ENE 13.8 mph - N/A   Overcast
1:15 AM 68.0 °F - 57.2 °F 68% 29.74 in 10.0 mi NE 10.4 mph 16.1 mph N/A   Overcast
1:35 AM 68.0 °F - 57.2 °F 68% 29.75 in 10.0 mi NNE 12.7 mph 20.7 mph N/A   Overcast
1:55 AM 66.2 °F - 57.2 °F 73% 29.74 in 10.0 mi NE 16.1 mph 25.3 mph N/A   Overcast
2:15 AM 66.2 °F - 57.2 °F 73% 29.74 in 10.0 mi NE 19.6 mph 31.1 mph N/A   Overcast
2:35 AM 66.2 °F - 57.2 °F 73% 29.74 in 10.0 mi ENE 16.1 mph 29.9 mph N/A   Overcast
2:55 AM 68.0 °F - 57.2 °F 68% 29.73 in 10.0 mi ENE 21.9 mph 29.9 mph N/A   Overcast
3:15 AM 68.0 °F - 57.2 °F 68% 29.73 in 10.0 mi ENE 19.6 mph 27.6 mph N/A   Overcast
3:35 AM 66.2 °F - 57.2 °F 73% 29.72 in 10.0 mi East 19.6 mph 29.9 mph N/A   Overcast
3:55 AM 66.2 °F - 59.0 °F 78% 29.72 in 10.0 mi East 16.1 mph 29.9 mph N/A   Overcast
4:15 AM 66.2 °F - 59.0 °F 78% 29.71 in 10.0 mi East 17.3 mph 25.3 mph N/A   Overcast
4:35 AM 66.2 °F - 59.0 °F 78% 29.72 in 10.0 mi East 17.3 mph 25.3 mph N/A   Overcast
4:55 AM 66.2 °F - 59.0 °F 78% 29.72 in 10.0 mi East 16.1 mph 25.3 mph N/A   Overcast
5:15 AM 66.2 °F - 59.0 °F 78% 29.74 in 10.0 mi East 15.0 mph 23.0 mph N/A   Overcast
5:35 AM 64.4 °F - 59.0 °F 83% 29.75 in 10.0 mi East 17.3 mph - N/A   Overcast
5:55 AM 64.4 °F - 59.0 °F 83% 29.74 in 10.0 mi East 13.8 mph 21.9 mph N/A   Overcast
6:15 AM 64.4 °F - 59.0 °F 83% 29.75 in 10.0 mi ENE 11.5 mph 19.6 mph N/A   Overcast
6:35 AM 64.4 °F - 60.8 °F 88% 29.75 in 10.0 mi ENE 10.4 mph - N/A   Overcast
6:55 AM 64.4 °F - 60.8 °F 88% 29.76 in 10.0 mi East 9.2 mph - N/A   Overcast
7:15 AM 64.4 °F - 60.8 °F 88% 29.76 in 10.0 mi East 13.8 mph - N/A   Overcast
7:35 AM 64.4 °F - 60.8 °F 88% 29.74 in 10.0 mi ESE 15.0 mph 21.9 mph N/A   Mostly Cloudy
7:55 AM 64.4 °F - 60.8 °F 88% 29.75 in 10.0 mi ESE 12.7 mph 19.6 mph N/A   Mostly Cloudy
8:15 AM 64.4 °F - 62.6 °F 94% 29.74 in 7.0 mi ESE 12.7 mph - N/A   Overcast
8:35 AM 64.4 °F - 62.6 °F 94% 29.74 in 10.0 mi ESE 13.8 mph - N/A   Mostly Cloudy
8:55 AM 66.2 °F - 62.6 °F 88% 29.72 in 10.0 mi ESE 18.4 mph 24.2 mph N/A   Overcast
9:15 AM 66.2 °F - 64.4 °F 94% 29.74 in 10.0 mi East 13.8 mph - N/A   Overcast
9:35 AM 66.2 °F - 64.4 °F 94% 29.75 in 10.0 mi East 12.7 mph 18.4 mph N/A   Overcast
9:55 AM 66.2 °F - 64.4 °F 94% 29.76 in 10.0 mi East 12.7 mph - N/A   Overcast
10:15 AM 66.2 °F - 64.4 °F 94% 29.75 in 10.0 mi ESE 12.7 mph 20.7 mph N/A   Overcast
10:35 AM 66.2 °F - 64.4 °F 94% 29.75 in 10.0 mi ESE 10.4 mph 17.3 mph N/A   Overcast
10:55 AM 68.0 °F - 66.2 °F 94% 29.71 in 10.0 mi ESE 16.1 mph 23.0 mph N/A   Scattered Clouds
11:15 AM 69.8 °F - 66.2 °F 88% 29.73 in 10.0 mi SE 18.4 mph 25.3 mph N/A   Scattered Clouds
11:35 AM 71.6 °F - 66.2 °F 83% 29.71 in 10.0 mi SE 15.0 mph 23.0 mph N/A   Scattered Clouds
12:15 PM 71.6 °F - 66.2 °F 83% 29.71 in 10.0 mi SSE 15.0 mph - N/A   Mostly Cloudy
12:35 PM 71.6 °F - 66.2 °F 83% 29.71 in 10.0 mi SE 13.8 mph 26.5 mph N/A   Mostly Cloudy
12:55 PM 71.6 °F - 66.2 °F 83% 29.72 in 10.0 mi SSE 12.7 mph 18.4 mph N/A   Partly Cloudy
1:35 PM 69.8 °F - 68.0 °F 94% 29.69 in 8.0 mi SE 9.2 mph 17.3 mph N/A   Light Drizzle
1:55 PM 69.8 °F - 68.0 °F 94% 29.70 in 10.0 mi SE 11.5 mph 18.4 mph 0.01 in   Clear
2:15 PM 71.6 °F - 68.0 °F 88% 29.70 in 10.0 mi East 11.5 mph - N/A   Mostly Cloudy
2:55 PM 73.4 °F - 69.8 °F 88% 29.68 in 10.0 mi East 13.8 mph - N/A   Overcast
3:15 PM 75.2 °F - 69.8 °F 83% 29.67 in 10.0 mi ESE 15.0 mph 20.7 mph N/A   Overcast
3:35 PM 78.8 °F - 71.6 °F 78% 29.66 in 10.0 mi ESE 16.1 mph 24.2 mph N/A   Mostly Cloudy
3:55 PM 78.8 °F - 69.8 °F 74% 29.65 in 10.0 mi ESE 18.4 mph 25.3 mph N/A   Partly Cloudy
4:15 PM 78.8 °F - 71.6 °F 78% 29.64 in 10.0 mi ESE 13.8 mph 24.2 mph N/A   Clear
4:35 PM 78.8 °F - 71.6 °F 78% 29.64 in 10.0 mi ESE 16.1 mph 24.2 mph N/A   Clear
4:55 PM 80.6 °F 84.6 °F 71.6 °F 74% 29.62 in 10.0 mi ESE 15.0 mph 24.2 mph N/A   Clear
5:15 PM 80.6 °F 84.6 °F 71.6 °F 74% 29.62 in 10.0 mi SE 13.8 mph 24.2 mph N/A   Clear
5:35 PM 84.2 °F 85.0 °F 62.6 °F 48% 29.61 in 10.0 mi South 19.6 mph 32.2 mph N/A   Clear
5:55 PM 84.2 °F 85.0 °F 62.6 °F 48% 29.62 in 10.0 mi South 17.3 mph 26.5 mph N/A   Clear
6:15 PM 84.2 °F 85.0 °F 62.6 °F 48% 29.61 in 10.0 mi SSE 15.0 mph 24.2 mph N/A   Clear
6:35 PM 82.4 °F 83.4 °F 62.6 °F 51% 29.61 in 10.0 mi South 15.0 mph 23.0 mph N/A   Clear
6:55 PM 82.4 °F 83.9 °F 64.4 °F 54% 29.61 in 10.0 mi SSE 16.1 mph 24.2 mph N/A   Clear
7:15 PM 80.6 °F 82.3 °F 64.4 °F 58% 29.62 in 10.0 mi SSE 13.8 mph 21.9 mph N/A   Clear
7:35 PM 80.6 °F 82.3 °F 64.4 °F 58% 29.62 in 10.0 mi SSE 12.7 mph - N/A   Partly Cloudy
7:55 PM 78.8 °F - 66.2 °F 65% 29.63 in 10.0 mi SSE 10.4 mph - N/A   Mostly Cloudy
8:15 PM 78.8 °F - 66.2 °F 65% 29.62 in 10.0 mi SE 12.7 mph - N/A   Mostly Cloudy
8:35 PM 77.0 °F - 66.2 °F 69% 29.63 in 10.0 mi SE 10.4 mph 18.4 mph N/A   Scattered Clouds
8:55 PM 77.0 °F - 66.2 °F 69% 29.63 in 10.0 mi SE 9.2 mph 15.0 mph N/A   Scattered Clouds
9:15 PM 75.2 °F - 66.2 °F 73% 29.62 in 10.0 mi SE 12.7 mph - N/A   Clear
9:35 PM 75.2 °F - 64.4 °F 69% 29.61 in 10.0 mi SSE 16.1 mph - N/A   Clear
9:55 PM 75.2 °F - 64.4 °F 69% 29.62 in 10.0 mi SSE 16.1 mph 21.9 mph N/A   Clear
10:15 PM 75.2 °F - 64.4 °F 69% 29.61 in 10.0 mi SSE 16.1 mph 24.2 mph N/A   Clear
10:35 PM 75.2 °F - 64.4 °F 69% 29.61 in 10.0 mi SSE 13.8 mph 26.5 mph N/A   Partly Cloudy
10:55 PM 75.2 °F - 64.4 °F 69% 29.56 in 10.0 mi SE 25.3 mph 34.5 mph N/A   Mostly Cloudy
11:15 PM 73.4 °F - 64.4 °F 73% 29.60 in 10.0 mi SSE 20.7 mph 38.0 mph N/A   Overcast
11:35 PM 73.4 °F - 64.4 °F 73% 29.61 in 10.0 mi SSE 16.1 mph 23.0 mph N/A   Mostly Cloudy
11:55 PM 73.4 °F - 62.6 °F 69% 29.60 in 10.0 mi SSE 17.3 mph 24.2 mph N/A   Scattered Clouds